sensor_id;sensor_type;location;lat;lon;timestamp;temperature;humidity
16116;DHT22;8162;47.104;15.432;2024-01-30T00:02:40;-1.30;74.30
16116;DHT22;8162;47.104;15.432;2024-01-30T00:05:41;-1.30;74.40
16116;DHT22;8162;47.104;15.432;2024-01-30T00:08:41;-1.30;74.50
16116;DHT22;8162;47.104;15.432;2024-01-30T00:11:42;-1.30;74.80
16116;DHT22;8162;47.104;15.432;2024-01-30T00:14:43;-1.30;74.80
16116;DHT22;8162;47.104;15.432;2024-01-30T00:17:44;-1.30;74.70
16116;DHT22;8162;47.104;15.432;2024-01-30T00:20:44;-1.20;75.00
16116;DHT22;8162;47.104;15.432;2024-01-30T00:23:45;-1.20;75.20
16116;DHT22;8162;47.104;15.432;2024-01-30T00:26:46;-1.20;75.00
16116;DHT22;8162;47.104;15.432;2024-01-30T00:29:47;-1.30;75.00
16116;DHT22;8162;47.104;15.432;2024-01-30T00:32:47;-1.30;75.40
16116;DHT22;8162;47.104;15.432;2024-01-30T00:35:48;-1.30;75.60
16116;DHT22;8162;47.104;15.432;2024-01-30T00:38:49;-1.30;75.50
16116;DHT22;8162;47.104;15.432;2024-01-30T00:41:49;-1.30;75.10
16116;DHT22;8162;47.104;15.432;2024-01-30T00:44:50;-1.30;75.30
16116;DHT22;8162;47.104;15.432;2024-01-30T00:47:51;-1.30;75.50
16116;DHT22;8162;47.104;15.432;2024-01-30T00:50:51;-1.40;75.70
16116;DHT22;8162;47.104;15.432;2024-01-30T00:53:52;-1.30;75.70
16116;DHT22;8162;47.104;15.432;2024-01-30T00:56:53;-1.50;75.50
16116;DHT22;8162;47.104;15.432;2024-01-30T00:59:54;-1.50;75.30
16116;DHT22;8162;47.104;15.432;2024-01-30T01:02:55;24.00;50.00
16116;DHT22;8162;47.104;15.432;2024-01-30T01:05:56;-1.50;75.10
16116;DHT22;8162;47.104;15.432;2024-01-30T01:08:56;-1.50;75.20
16116;DHT22;8162;47.104;15.432;2024-01-30T01:11:57;-1.50;75.50
16116;DHT22;8162;47.104;15.432;2024-01-30T01:14:58;-1.60;75.50
16116;DHT22;8162;47.104;15.432;2024-01-30T01:17:59;-1.50;75.20
16116;DHT22;8162;47.104;15.432;2024-01-30T01:20:59;-1.50;75.30
16116;DHT22;8162;47.104;15.432;2024-01-30T01:24:01;-1.50;75.70
16116;DHT22;8162;47.104;15.432;2024-01-30T01:27:02;-1.50;75.90
16116;DHT22;8162;47.104;15.432;2024-01-30T01:30:03;-1.50;75.70
16116;DHT22;8162;47.104;15.432;2024-01-30T01:33:06;-1.50;75.60
16116;DHT22;8162;47.104;15.432;2024-01-30T01:36:07;-1.50;75.80
16116;DHT22;8162;47.104;15.432;2024-01-30T01:39:07;-1.50;76.10
16116;DHT22;8162;47.104;15.432;2024-01-30T01:42:08;-1.50;76.10
16116;DHT22;8162;47.104;15.432;2024-01-30T01:45:09;-1.50;75.90
16116;DHT22;8162;47.104;15.432;2024-01-30T01:48:10;-1.50;76.10
16116;DHT22;8162;47.104;15.432;2024-01-30T01:51:11;-1.60;75.90
16116;DHT22;8162;47.104;15.432;2024-01-30T01:54:12;-1.60;75.90
16116;DHT22;8162;47.104;15.432;2024-01-30T01:57:13;-1.60;76.10
16116;DHT22;8162;47.104;15.432;2024-01-30T02:00:14;-1.60;75.90
16116;DHT22;8162;47.104;15.432;2024-01-30T02:03:18;-1.60;75.70
16116;DHT22;8162;47.104;15.432;2024-01-30T02:06:21;-1.70;75.70
16116;DHT22;8162;47.104;15.432;2024-01-30T02:09:23;-1.70;76.10
16116;DHT22;8162;47.104;15.432;2024-01-30T02:12:23;-1.70;75.90
16116;DHT22;8162;47.104;15.432;2024-01-30T02:15:24;-1.70;76.30
16116;DHT22;8162;47.104;15.432;2024-01-30T02:18:25;-1.70;75.80
16116;DHT22;8162;47.104;15.432;2024-01-30T02:21:25;-1.70;76.00
16116;DHT22;8162;47.104;15.432;2024-01-30T02:24:26;-1.70;75.50
16116;DHT22;8162;47.104;15.432;2024-01-30T02:27:27;-1.70;75.90
16116;DHT22;8162;47.104;15.432;2024-01-30T02:30:27;-1.70;76.20
16116;DHT22;8162;47.104;15.432;2024-01-30T02:33:28;-1.70;76.40
16116;DHT22;8162;47.104;15.432;2024-01-30T02:36:29;-1.70;76.40
16116;DHT22;8162;47.104;15.432;2024-01-30T02:39:29;-1.70;76.50
16116;DHT22;8162;47.104;15.432;2024-01-30T02:42:30;-1.70;76.80
16116;DHT22;8162;47.104;15.432;2024-01-30T02:45:31;-1.80;76.20
16116;DHT22;8162;47.104;15.432;2024-01-30T02:48:32;-1.80;76.30
16116;DHT22;8162;47.104;15.432;2024-01-30T02:51:32;-1.80;76.50
16116;DHT22;8162;47.104;15.432;2024-01-30T02:54:33;-1.80;76.00
16116;DHT22;8162;47.104;15.432;2024-01-30T02:57:34;-1.90;76.50
16116;DHT22;8162;47.104;15.432;2024-01-30T03:00:34;-1.80;76.30
16116;DHT22;8162;47.104;15.432;2024-01-30T03:03:35;-1.80;76.50
16116;DHT22;8162;47.104;15.432;2024-01-30T03:06:36;-1.70;76.50
16116;DHT22;8162;47.104;15.432;2024-01-30T03:09:37;-1.70;76.20
16116;DHT22;8162;47.104;15.432;2024-01-30T03:12:38;-1.70;76.00
16116;DHT22;8162;47.104;15.432;2024-01-30T03:15:38;-1.70;76.00
16116;DHT22;8162;47.104;15.432;2024-01-30T03:18:39;-1.80;76.20
16116;DHT22;8162;47.104;15.432;2024-01-30T03:21:40;-1.80;76.40
16116;DHT22;8162;47.104;15.432;2024-01-30T03:24:40;-1.80;76.60
16116;DHT22;8162;47.104;15.432;2024-01-30T03:27:41;-1.90;76.10
16116;DHT22;8162;47.104;15.432;2024-01-30T03:48:48;-1.90;76.00
16116;DHT22;8162;47.104;15.432;2024-01-30T03:51:49;-2.10;76.20
16116;DHT22;8162;47.104;15.432;2024-01-30T03:54:50;-2.20;76.20
16116;DHT22;8162;47.104;15.432;2024-01-30T03:57:51;-2.20;76.40
16116;DHT22;8162;47.104;15.432;2024-01-30T04:00:51;-2.20;76.50
16116;DHT22;8162;47.104;15.432;2024-01-30T04:03:52;-2.20;76.70
16116;DHT22;8162;47.104;15.432;2024-01-30T04:06:53;-2.20;76.40
16116;DHT22;8162;47.104;15.432;2024-01-30T04:09:53;-2.20;76.50
16116;DHT22;8162;47.104;15.432;2024-01-30T04:12:54;-2.20;76.60
16116;DHT22;8162;47.104;15.432;2024-01-30T04:15:55;-2.30;76.70
16116;DHT22;8162;47.104;15.432;2024-01-30T04:18:57;-2.30;76.90
16116;DHT22;8162;47.104;15.432;2024-01-30T04:21:58;-2.30;77.00
16116;DHT22;8162;47.104;15.432;2024-01-30T04:24:59;-2.30;77.30
16116;DHT22;8162;47.104;15.432;2024-01-30T04:27:59;-2.30;77.50
16116;DHT22;8162;47.104;15.432;2024-01-30T04:31:00;-2.30;77.30
16116;DHT22;8162;47.104;15.432;2024-01-30T04:34:01;-2.30;77.20
16116;DHT22;8162;47.104;15.432;2024-01-30T04:37:01;-2.30;77.00
16116;DHT22;8162;47.104;15.432;2024-01-30T04:40:02;-2.40;76.90
16116;DHT22;8162;47.104;15.432;2024-01-30T04:43:03;-2.40;77.20
16116;DHT22;8162;47.104;15.432;2024-01-30T04:46:04;-2.40;77.00
16116;DHT22;8162;47.104;15.432;2024-01-30T04:49:05;-2.50;76.80
16116;DHT22;8162;47.104;15.432;2024-01-30T04:52:08;-2.50;76.60
16116;DHT22;8162;47.104;15.432;2024-01-30T04:55:09;-2.50;76.70
16116;DHT22;8162;47.104;15.432;2024-01-30T04:58:10;-2.50;76.90
16116;DHT22;8162;47.104;15.432;2024-01-30T05:01:15;-2.50;77.00
16116;DHT22;8162;47.104;15.432;2024-01-30T05:04:16;-2.50;76.90
16116;DHT22;8162;47.104;15.432;2024-01-30T05:07:17;-2.60;77.00
16116;DHT22;8162;47.104;15.432;2024-01-30T05:10:18;-2.60;77.30
16116;DHT22;8162;47.104;15.432;2024-01-30T05:13:19;-2.60;77.00
16116;DHT22;8162;47.104;15.432;2024-01-30T05:16:20;-2.60;77.30
16116;DHT22;8162;47.104;15.432;2024-01-30T05:19:20;-2.60;77.30
16116;DHT22;8162;47.104;15.432;2024-01-30T05:22:23;-2.60;77.00
16116;DHT22;8162;47.104;15.432;2024-01-30T05:25:24;-2.60;77.00
16116;DHT22;8162;47.104;15.432;2024-01-30T05:28:25;-2.60;77.20
16116;DHT22;8162;47.104;15.432;2024-01-30T05:31:25;-2.60;76.80
16116;DHT22;8162;47.104;15.432;2024-01-30T05:34:27;-2.60;76.50
16116;DHT22;8162;47.104;15.432;2024-01-30T05:37:28;-2.70;76.50
16116;DHT22;8162;47.104;15.432;2024-01-30T05:40:28;-2.70;76.80
16116;DHT22;8162;47.104;15.432;2024-01-30T05:43:29;-2.80;76.90
16116;DHT22;8162;47.104;15.432;2024-01-30T05:46:30;-2.80;77.20
16116;DHT22;8162;47.104;15.432;2024-01-30T05:49:30;-2.70;76.80
16116;DHT22;8162;47.104;15.432;2024-01-30T05:52:31;-2.80;76.60
16116;DHT22;8162;47.104;15.432;2024-01-30T05:55:32;-2.80;76.80
16116;DHT22;8162;47.104;15.432;2024-01-30T05:58:32;-2.80;77.00
16116;DHT22;8162;47.104;15.432;2024-01-30T06:01:33;-2.80;76.90
16116;DHT22;8162;47.104;15.432;2024-01-30T06:04:35;-2.80;77.00
16116;DHT22;8162;47.104;15.432;2024-01-30T06:07:35;-2.90;77.00
16116;DHT22;8162;47.104;15.432;2024-01-30T06:10:36;-2.90;77.50
16116;DHT22;8162;47.104;15.432;2024-01-30T06:13:37;-2.80;77.90
16116;DHT22;8162;47.104;15.432;2024-01-30T06:16:37;-2.70;78.20
16116;DHT22;8162;47.104;15.432;2024-01-30T06:19:38;-2.70;78.40
16116;DHT22;8162;47.104;15.432;2024-01-30T06:22:39;-2.70;78.30
16116;DHT22;8162;47.104;15.432;2024-01-30T06:25:40;-2.70;78.00
16116;DHT22;8162;47.104;15.432;2024-01-30T06:28:41;-2.70;77.40
16116;DHT22;8162;47.104;15.432;2024-01-30T06:31:42;-2.70;77.40
16116;DHT22;8162;47.104;15.432;2024-01-30T06:34:43;-2.80;77.60
16116;DHT22;8162;47.104;15.432;2024-01-30T06:37:44;-2.80;77.50
16116;DHT22;8162;47.104;15.432;2024-01-30T06:40:45;-2.80;77.70
16116;DHT22;8162;47.104;15.432;2024-01-30T06:43:46;-2.80;77.70
16116;DHT22;8162;47.104;15.432;2024-01-30T06:46:47;-2.80;77.70
16116;DHT22;8162;47.104;15.432;2024-01-30T06:49:47;-2.80;77.80
16116;DHT22;8162;47.104;15.432;2024-01-30T06:52:48;-2.80;77.60
16116;DHT22;8162;47.104;15.432;2024-01-30T06:55:49;-2.70;77.80
16116;DHT22;8162;47.104;15.432;2024-01-30T06:58:50;-2.80;77.80
16116;DHT22;8162;47.104;15.432;2024-01-30T07:01:51;-2.70;77.90
16116;DHT22;8162;47.104;15.432;2024-01-30T07:04:51;-2.70;77.90
16116;DHT22;8162;47.104;15.432;2024-01-30T07:07:52;-2.60;78.20
16116;DHT22;8162;47.104;15.432;2024-01-30T07:10:53;-2.60;78.40
16116;DHT22;8162;47.104;15.432;2024-01-30T07:13:55;-2.50;78.70
16116;DHT22;8162;47.104;15.432;2024-01-30T07:16:56;-2.50;78.50
16116;DHT22;8162;47.104;15.432;2024-01-30T07:19:57;-2.50;77.90
16116;DHT22;8162;47.104;15.432;2024-01-30T07:22:58;-2.50;78.00
16116;DHT22;8162;47.104;15.432;2024-01-30T07:25:59;-2.40;78.60
16116;DHT22;8162;47.104;15.432;2024-01-30T07:29:00;-2.40;78.60
16116;DHT22;8162;47.104;15.432;2024-01-30T07:32:00;-2.40;78.40
16116;DHT22;8162;47.104;15.432;2024-01-30T07:35:01;-2.30;78.20
16116;DHT22;8162;47.104;15.432;2024-01-30T07:38:02;-2.30;78.20
16116;DHT22;8162;47.104;15.432;2024-01-30T07:41:03;-2.30;78.60
16116;DHT22;8162;47.104;15.432;2024-01-30T07:44:03;-2.30;78.60
16116;DHT22;8162;47.104;15.432;2024-01-30T07:47:05;-2.20;78.30
16116;DHT22;8162;47.104;15.432;2024-01-30T07:50:06;-2.20;78.40
16116;DHT22;8162;47.104;15.432;2024-01-30T07:53:07;-2.10;78.40
16116;DHT22;8162;47.104;15.432;2024-01-30T07:56:08;-2.10;78.60
16116;DHT22;8162;47.104;15.432;2024-01-30T07:59:12;-1.90;78.90
16116;DHT22;8162;47.104;15.432;2024-01-30T08:02:13;-1.90;79.00
16116;DHT22;8162;47.104;15.432;2024-01-30T08:05:14;-1.80;78.60
16116;DHT22;8162;47.104;15.432;2024-01-30T08:08:15;-1.70;78.10
16116;DHT22;8162;47.104;15.432;2024-01-30T08:11:16;-1.70;78.30
16116;DHT22;8162;47.104;15.432;2024-01-30T08:14:17;-1.60;77.80
16116;DHT22;8162;47.104;15.432;2024-01-30T08:17:17;-1.60;77.70
16116;DHT22;8162;47.104;15.432;2024-01-30T08:20:18;-1.50;77.50
16116;DHT22;8162;47.104;15.432;2024-01-30T08:23:19;-1.50;77.30
16116;DHT22;8162;47.104;15.432;2024-01-30T08:26:19;-1.40;76.50
16116;DHT22;8162;47.104;15.432;2024-01-30T08:29:20;-1.30;76.30
16116;DHT22;8162;47.104;15.432;2024-01-30T08:32:21;-1.20;75.80
16116;DHT22;8162;47.104;15.432;2024-01-30T08:35:22;-1.10;75.50
16116;DHT22;8162;47.104;15.432;2024-01-30T08:38:22;-1.10;75.20
16116;DHT22;8162;47.104;15.432;2024-01-30T08:41:23;-1.00;75.00
16116;DHT22;8162;47.104;15.432;2024-01-30T08:44:24;-1.00;75.10
16116;DHT22;8162;47.104;15.432;2024-01-30T08:47:24;-0.90;75.20
16116;DHT22;8162;47.104;15.432;2024-01-30T08:50:25;-0.90;74.80
16116;DHT22;8162;47.104;15.432;2024-01-30T08:53:26;-0.80;74.30
16116;DHT22;8162;47.104;15.432;2024-01-30T08:56:27;-0.70;74.30
16116;DHT22;8162;47.104;15.432;2024-01-30T08:59:28;-0.70;73.80
16116;DHT22;8162;47.104;15.432;2024-01-30T09:02:28;-0.70;73.90
16116;DHT22;8162;47.104;15.432;2024-01-30T09:53:58;24.00;50.00
16116;DHT22;8162;47.104;15.432;2024-01-30T09:56:59;0.60;70.30
16116;DHT22;8162;47.104;15.432;2024-01-30T10:00:00;0.60;70.10
16116;DHT22;8162;47.104;15.432;2024-01-30T10:03:00;0.80;69.50
16116;DHT22;8162;47.104;15.432;2024-01-30T10:06:01;0.80;69.60
16116;DHT22;8162;47.104;15.432;2024-01-30T10:09:02;1.00;69.20
16116;DHT22;8162;47.104;15.432;2024-01-30T10:12:03;1.10;69.40
16116;DHT22;8162;47.104;15.432;2024-01-30T10:15:07;1.20;68.70
16116;DHT22;8162;47.104;15.432;2024-01-30T10:57:37;1.20;69.10
16116;DHT22;8162;47.104;15.432;2024-01-30T11:00:38;2.50;67.60
16116;DHT22;8162;47.104;15.432;2024-01-30T11:03:39;2.60;67.50
16116;DHT22;8162;47.104;15.432;2024-01-30T11:06:43;2.70;67.00
16116;DHT22;8162;47.104;15.432;2024-01-30T11:15:53;2.80;67.00
16116;DHT22;8162;47.104;15.432;2024-01-30T11:18:54;3.10;65.80
16116;DHT22;8162;47.104;15.432;2024-01-30T11:21:55;3.10;66.10
16116;DHT22;8162;47.104;15.432;2024-01-30T11:24:57;3.30;65.60
16116;DHT22;8162;47.104;15.432;2024-01-30T11:27:59;3.30;65.70
16116;DHT22;8162;47.104;15.432;2024-01-30T11:58:18;3.50;65.30
16116;DHT22;8162;47.104;15.432;2024-01-30T12:01:19;4.50;62.50
16116;DHT22;8162;47.104;15.432;2024-01-30T12:04:20;4.50;61.80
16116;DHT22;8162;47.104;15.432;2024-01-30T12:07:21;4.70;61.60
16116;DHT22;8162;47.104;15.432;2024-01-30T12:10:23;4.70;61.20
16116;DHT22;8162;47.104;15.432;2024-01-30T12:13:24;4.80;61.60
16116;DHT22;8162;47.104;15.432;2024-01-30T12:16:25;5.00;61.00
16116;DHT22;8162;47.104;15.432;2024-01-30T12:19:26;5.10;59.90
16116;DHT22;8162;47.104;15.432;2024-01-30T12:22:27;5.20;59.40
16116;DHT22;8162;47.104;15.432;2024-01-30T12:25:28;5.30;59.70
16116;DHT22;8162;47.104;15.432;2024-01-30T12:28:29;5.40;59.00
16116;DHT22;8162;47.104;15.432;2024-01-30T12:31:32;5.50;58.40
16116;DHT22;8162;47.104;15.432;2024-01-30T12:34:32;5.60;57.30
16116;DHT22;8162;47.104;15.432;2024-01-30T12:37:33;5.70;58.10
16116;DHT22;8162;47.104;15.432;2024-01-30T12:40:34;5.80;56.70
16116;DHT22;8162;47.104;15.432;2024-01-30T12:43:34;5.90;56.90
16116;DHT22;8162;47.104;15.432;2024-01-30T12:46:35;6.00;56.10
16116;DHT22;8162;47.104;15.432;2024-01-30T12:49:36;6.10;56.60
16116;DHT22;8162;47.104;15.432;2024-01-30T12:52:36;6.20;56.00
16116;DHT22;8162;47.104;15.432;2024-01-30T12:55:38;6.30;55.90
16116;DHT22;8162;47.104;15.432;2024-01-30T12:58:38;6.40;55.60
16116;DHT22;8162;47.104;15.432;2024-01-30T13:01:39;6.40;55.70
16116;DHT22;8162;47.104;15.432;2024-01-30T13:04:40;6.50;55.00
16116;DHT22;8162;47.104;15.432;2024-01-30T13:07:41;6.60;55.20
16116;DHT22;8162;47.104;15.432;2024-01-30T13:10:41;6.70;54.20
16116;DHT22;8162;47.104;15.432;2024-01-30T13:13:42;6.70;54.50
16116;DHT22;8162;47.104;15.432;2024-01-30T13:16:43;6.90;53.90
16116;DHT22;8162;47.104;15.432;2024-01-30T13:19:43;6.90;53.60
16116;DHT22;8162;47.104;15.432;2024-01-30T13:34:49;6.90;53.60
16116;DHT22;8162;47.104;15.432;2024-01-30T13:37:49;7.30;52.10
16116;DHT22;8162;47.104;15.432;2024-01-30T13:40:50;7.40;51.70
16116;DHT22;8162;47.104;15.432;2024-01-30T13:43:51;7.50;52.10
16116;DHT22;8162;47.104;15.432;2024-01-30T15:35:36;24.00;50.00
16116;DHT22;8162;47.104;15.432;2024-01-30T15:38:38;5.90;55.30
16116;DHT22;8162;47.104;15.432;2024-01-30T15:41:39;5.80;55.40
16116;DHT22;8162;47.104;15.432;2024-01-30T15:59:44;5.60;55.90
16116;DHT22;8162;47.104;15.432;2024-01-30T16:02:45;4.60;58.70
16116;DHT22;8162;47.104;15.432;2024-01-30T16:05:47;4.50;59.10
16116;DHT22;8162;47.104;15.432;2024-01-30T16:08:49;4.40;59.30
16116;DHT22;8162;47.104;15.432;2024-01-30T16:11:50;4.20;59.80
16116;DHT22;8162;47.104;15.432;2024-01-30T16:14:51;4.10;60.30
16116;DHT22;8162;47.104;15.432;2024-01-30T16:17:52;4.00;60.30
16116;DHT22;8162;47.104;15.432;2024-01-30T16:20:52;3.90;60.70
16116;DHT22;8162;47.104;15.432;2024-01-30T16:23:53;3.70;61.00
16116;DHT22;8162;47.104;15.432;2024-01-30T16:32:58;3.60;61.90
16116;DHT22;8162;47.104;15.432;2024-01-30T16:35:59;3.30;62.60
16116;DHT22;8162;47.104;15.432;2024-01-30T16:39:00;3.20;62.60
16116;DHT22;8162;47.104;15.432;2024-01-30T16:42:03;3.10;63.00
16116;DHT22;8162;47.104;15.432;2024-01-30T16:45:04;3.00;63.20
16116;DHT22;8162;47.104;15.432;2024-01-30T16:48:05;2.90;63.50
16116;DHT22;8162;47.104;15.432;2024-01-30T16:51:06;2.80;63.60
16116;DHT22;8162;47.104;15.432;2024-01-30T16:54:07;2.70;64.30
16116;DHT22;8162;47.104;15.432;2024-01-30T16:57:08;2.60;64.20
16116;DHT22;8162;47.104;15.432;2024-01-30T17:00:09;2.50;64.40
16116;DHT22;8162;47.104;15.432;2024-01-30T17:03:10;2.50;64.70
16116;DHT22;8162;47.104;15.432;2024-01-30T17:06:11;2.50;65.00
16116;DHT22;8162;47.104;15.432;2024-01-30T17:09:12;2.40;65.40
16116;DHT22;8162;47.104;15.432;2024-01-30T17:12:15;2.20;65.70
16116;DHT22;8162;47.104;15.432;2024-01-30T17:15:16;2.20;65.50
16116;DHT22;8162;47.104;15.432;2024-01-30T17:18:16;2.10;65.90
16116;DHT22;8162;47.104;15.432;2024-01-30T17:21:20;2.10;66.00
16116;DHT22;8162;47.104;15.432;2024-01-30T17:24:20;2.00;66.30
16116;DHT22;8162;47.104;15.432;2024-01-30T17:27:21;1.90;66.50
16116;DHT22;8162;47.104;15.432;2024-01-30T17:30:22;1.90;66.50
16116;DHT22;8162;47.104;15.432;2024-01-30T17:33:23;1.80;66.80
16116;DHT22;8162;47.104;15.432;2024-01-30T17:36:24;1.80;66.90
16116;DHT22;8162;47.104;15.432;2024-01-30T17:39:25;1.70;67.40
16116;DHT22;8162;47.104;15.432;2024-01-30T17:42:26;1.60;67.60
16116;DHT22;8162;47.104;15.432;2024-01-30T17:45:26;1.60;67.20
16116;DHT22;8162;47.104;15.432;2024-01-30T17:48:27;1.60;67.10
16116;DHT22;8162;47.104;15.432;2024-01-30T17:51:28;1.50;67.40
16116;DHT22;8162;47.104;15.432;2024-01-30T17:54:28;1.40;67.90
16116;DHT22;8162;47.104;15.432;2024-01-30T17:57:29;1.40;67.90
16116;DHT22;8162;47.104;15.432;2024-01-30T18:00:30;1.40;68.00
16116;DHT22;8162;47.104;15.432;2024-01-30T18:03:31;1.40;68.00
16116;DHT22;8162;47.104;15.432;2024-01-30T18:06:31;1.40;68.80
16116;DHT22;8162;47.104;15.432;2024-01-30T18:09:32;1.40;68.70
16116;DHT22;8162;47.104;15.432;2024-01-30T18:12:33;1.30;68.80
16116;DHT22;8162;47.104;15.432;2024-01-30T18:15:34;1.20;68.90
16116;DHT22;8162;47.104;15.432;2024-01-30T18:18:36;1.20;69.50
16116;DHT22;8162;47.104;15.432;2024-01-30T18:21:36;1.20;69.70
16116;DHT22;8162;47.104;15.432;2024-01-30T18:24:37;1.10;69.50
16116;DHT22;8162;47.104;15.432;2024-01-30T18:27:39;1.00;69.80
16116;DHT22;8162;47.104;15.432;2024-01-30T18:30:40;1.00;70.30
16116;DHT22;8162;47.104;15.432;2024-01-30T18:33:41;1.00;70.00
16116;DHT22;8162;47.104;15.432;2024-01-30T18:36:41;1.00;70.40
16116;DHT22;8162;47.104;15.432;2024-01-30T18:39:43;0.90;69.80
16116;DHT22;8162;47.104;15.432;2024-01-30T18:42:46;0.80;70.00
16116;DHT22;8162;47.104;15.432;2024-01-30T18:45:52;0.80;70.30
16116;DHT22;8162;47.104;15.432;2024-01-30T18:48:54;0.80;70.70
16116;DHT22;8162;47.104;15.432;2024-01-30T18:51:55;0.70;71.00
16116;DHT22;8162;47.104;15.432;2024-01-30T18:54:57;0.60;71.00
16116;DHT22;8162;47.104;15.432;2024-01-30T18:57:58;0.60;71.20
16116;DHT22;8162;47.104;15.432;2024-01-30T19:01:00;0.60;71.30
16116;DHT22;8162;47.104;15.432;2024-01-30T19:04:02;0.50;71.60
16116;DHT22;8162;47.104;15.432;2024-01-30T19:07:05;0.60;71.60
16116;DHT22;8162;47.104;15.432;2024-01-30T19:10:08;0.50;71.50
16116;DHT22;8162;47.104;15.432;2024-01-30T19:13:10;0.50;72.00
16116;DHT22;8162;47.104;15.432;2024-01-30T19:16:13;0.50;71.90
16116;DHT22;8162;47.104;15.432;2024-01-30T19:19:15;0.50;71.70
16116;DHT22;8162;47.104;15.432;2024-01-30T19:22:16;0.40;71.50
16116;DHT22;8162;47.104;15.432;2024-01-30T19:25:18;0.40;71.60
16116;DHT22;8162;47.104;15.432;2024-01-30T19:28:19;0.40;72.00
16116;DHT22;8162;47.104;15.432;2024-01-30T19:31:23;0.40;72.00
16116;DHT22;8162;47.104;15.432;2024-01-30T19:34:24;0.40;72.30
16116;DHT22;8162;47.104;15.432;2024-01-30T19:37:26;0.40;72.40
16116;DHT22;8162;47.104;15.432;2024-01-30T19:40:27;0.30;72.80
16116;DHT22;8162;47.104;15.432;2024-01-30T19:43:29;0.30;72.70
16116;DHT22;8162;47.104;15.432;2024-01-30T19:46:30;0.20;72.30
16116;DHT22;8162;47.104;15.432;2024-01-30T19:49:31;0.30;72.20
16116;DHT22;8162;47.104;15.432;2024-01-30T19:52:33;0.20;72.80
16116;DHT22;8162;47.104;15.432;2024-01-30T19:55:35;0.10;73.00
16116;DHT22;8162;47.104;15.432;2024-01-30T19:58:36;0.10;73.00
16116;DHT22;8162;47.104;15.432;2024-01-30T20:01:37;0.00;72.90
16116;DHT22;8162;47.104;15.432;2024-01-30T20:04:38;0.00;73.10
16116;DHT22;8162;47.104;15.432;2024-01-30T20:07:39;0.00;73.20
16116;DHT22;8162;47.104;15.432;2024-01-30T20:10:40;0.00;73.40
16116;DHT22;8162;47.104;15.432;2024-01-30T20:13:41;0.00;73.20
16116;DHT22;8162;47.104;15.432;2024-01-30T20:16:42;0.00;73.90
16116;DHT22;8162;47.104;15.432;2024-01-30T20:19:44;0.00;73.40
16116;DHT22;8162;47.104;15.432;2024-01-30T20:22:46;0.00;73.60
16116;DHT22;8162;47.104;15.432;2024-01-30T20:25:47;0.00;73.80
16116;DHT22;8162;47.104;15.432;2024-01-30T20:28:48;0.00;73.80
16116;DHT22;8162;47.104;15.432;2024-01-30T20:31:50;0.00;74.00
16116;DHT22;8162;47.104;15.432;2024-01-30T20:34:51;0.00;74.00
16116;DHT22;8162;47.104;15.432;2024-01-30T20:37:55;0.00;73.80
16116;DHT22;8162;47.104;15.432;2024-01-30T20:40:56;0.00;74.20
16116;DHT22;8162;47.104;15.432;2024-01-30T20:43:57;0.00;74.20
16116;DHT22;8162;47.104;15.432;2024-01-30T20:46:59;0.00;74.60
16116;DHT22;8162;47.104;15.432;2024-01-30T20:50:00;-0.10;74.60
16116;DHT22;8162;47.104;15.432;2024-01-30T20:53:02;-0.10;74.60
16116;DHT22;8162;47.104;15.432;2024-01-30T20:56:04;-0.10;74.80
16116;DHT22;8162;47.104;15.432;2024-01-30T20:59:05;-0.10;74.80
16116;DHT22;8162;47.104;15.432;2024-01-30T21:02:06;-0.10;74.70
16116;DHT22;8162;47.104;15.432;2024-01-30T21:05:07;-0.10;74.60
16116;DHT22;8162;47.104;15.432;2024-01-30T21:08:09;-0.20;74.40
16116;DHT22;8162;47.104;15.432;2024-01-30T21:11:10;-0.20;74.30
16116;DHT22;8162;47.104;15.432;2024-01-30T21:14:11;-0.20;74.70
16116;DHT22;8162;47.104;15.432;2024-01-30T21:17:12;-0.30;74.90
16116;DHT22;8162;47.104;15.432;2024-01-30T21:20:13;-0.30;74.70
16116;DHT22;8162;47.104;15.432;2024-01-30T21:23:14;-0.30;74.90
16116;DHT22;8162;47.104;15.432;2024-01-30T21:26:14;-0.30;74.50
16116;DHT22;8162;47.104;15.432;2024-01-30T21:29:15;-0.40;75.00
16116;DHT22;8162;47.104;15.432;2024-01-30T21:32:16;-0.40;75.40
16116;DHT22;8162;47.104;15.432;2024-01-30T21:35:17;-0.40;75.40
16116;DHT22;8162;47.104;15.432;2024-01-30T21:38:20;-0.40;75.50
16116;DHT22;8162;47.104;15.432;2024-01-30T21:41:21;-0.40;75.30
16116;DHT22;8162;47.104;15.432;2024-01-30T21:44:22;-0.40;75.40
16116;DHT22;8162;47.104;15.432;2024-01-30T21:47:23;-0.40;75.50
16116;DHT22;8162;47.104;15.432;2024-01-30T21:50:24;-0.40;75.40
16116;DHT22;8162;47.104;15.432;2024-01-30T21:53:24;-0.50;75.70
16116;DHT22;8162;47.104;15.432;2024-01-30T21:56:25;-0.50;75.40
16116;DHT22;8162;47.104;15.432;2024-01-30T21:59:26;-0.50;75.50
16116;DHT22;8162;47.104;15.432;2024-01-30T22:02:28;-0.50;75.70
16116;DHT22;8162;47.104;15.432;2024-01-30T22:05:28;-0.50;75.90
16116;DHT22;8162;47.104;15.432;2024-01-30T22:08:29;-0.50;76.10
16116;DHT22;8162;47.104;15.432;2024-01-30T22:11:30;-0.50;76.00
16116;DHT22;8162;47.104;15.432;2024-01-30T22:14:30;-0.50;75.60
16116;DHT22;8162;47.104;15.432;2024-01-30T22:17:31;-0.50;76.00
16116;DHT22;8162;47.104;15.432;2024-01-30T22:20:32;-0.60;76.00
16116;DHT22;8162;47.104;15.432;2024-01-30T22:23:35;-0.50;76.30
16116;DHT22;8162;47.104;15.432;2024-01-30T22:26:41;-0.60;76.40
16116;DHT22;8162;47.104;15.432;2024-01-30T22:29:41;-0.60;76.60
16116;DHT22;8162;47.104;15.432;2024-01-30T22:32:42;-0.60;76.20
16116;DHT22;8162;47.104;15.432;2024-01-30T22:35:43;-0.60;76.30
16116;DHT22;8162;47.104;15.432;2024-01-30T22:38:43;-0.60;76.50
16116;DHT22;8162;47.104;15.432;2024-01-30T22:41:44;-0.60;76.10
16116;DHT22;8162;47.104;15.432;2024-01-30T22:44:45;-0.60;76.20
16116;DHT22;8162;47.104;15.432;2024-01-30T22:47:46;-0.60;76.60
16116;DHT22;8162;47.104;15.432;2024-01-30T22:50:47;-0.70;76.70
16116;DHT22;8162;47.104;15.432;2024-01-30T22:53:48;-0.70;76.70
16116;DHT22;8162;47.104;15.432;2024-01-30T22:56:49;-0.70;76.50
16116;DHT22;8162;47.104;15.432;2024-01-30T22:59:50;-0.70;76.60
16116;DHT22;8162;47.104;15.432;2024-01-30T23:02:50;-0.70;76.50
16116;DHT22;8162;47.104;15.432;2024-01-30T23:14:56;-0.50;75.70
16116;DHT22;8162;47.104;15.432;2024-01-30T23:18:00;-0.80;76.20
16116;DHT22;8162;47.104;15.432;2024-01-30T23:21:01;-0.80;76.10
16116;DHT22;8162;47.104;15.432;2024-01-30T23:24:01;-0.90;76.40
16116;DHT22;8162;47.104;15.432;2024-01-30T23:27:02;-0.80;76.40
16116;DHT22;8162;47.104;15.432;2024-01-30T23:30:03;-0.90;76.10
16116;DHT22;8162;47.104;15.432;2024-01-30T23:33:04;-0.90;76.20
16116;DHT22;8162;47.104;15.432;2024-01-30T23:36:05;-0.90;76.50
16116;DHT22;8162;47.104;15.432;2024-01-30T23:39:06;-0.90;76.50
16116;DHT22;8162;47.104;15.432;2024-01-30T23:42:08;-0.90;76.80
16116;DHT22;8162;47.104;15.432;2024-01-30T23:45:10;-1.00;77.00
16116;DHT22;8162;47.104;15.432;2024-01-30T23:48:11;-1.00;76.70
16116;DHT22;8162;47.104;15.432;2024-01-30T23:51:12;-1.10;77.30
16116;DHT22;8162;47.104;15.432;2024-01-30T23:54:12;-1.00;77.50
16116;DHT22;8162;47.104;15.432;2024-01-30T23:57:13;-1.10;77.20
